PWSweather.com
Personal Weather Stations
Station Observations
ABQWX
Albuquerque, NM 87110

Albuquerque, NM 87110

Lat: 35.1305, Lon: -106.58571

Elevation: 5210

Station Type: LaCrosse

http://www.albuquerqueweather.info/

High Low Average
Temperature 57.9°F14.4°C 26.2°F-3.2°C 39.3°F4.1°C
Dew Point 18.2°F-7.7°C 2.4°F-16.4°C 9.1°F-12.7°C
Winds 9.1 mph 14.6 kmh 0.2 mph 0.3 kmh 4.0 mph SE6.4 kmh SE
Wind Gusts 15.4 mph24.8 kmh 2.5 mph4.0 kmh 9.0 mph14.5 kmh
Humidity 64% 12% 33%
Pressure 30.21 in1023.0 mb 30.03 in1016.9 mb -
Precipitation 0.00 in0.0 mm - -
Hour Temp Dew Point Humidity Winds Wind Gusts Pressure Precip Precip Rate Daily Precip Total
12:00 AM 39.9°F4.4°C 3.1°F-16.1°C 21% 3.0 mph NW4.8 kmh NW 8.3 mph13.4 kmh 30.04 in1017.3 mb 0.00 in0.0 mm 0.00 in/hr0.0 mm/hr 0.00 in0.0 mm
12:15 AM 39.7°F4.3°C 2.9°F-16.2°C 21% 2.8 mph NNW4.5 kmh NNW 8.5 mph13.7 kmh 30.04 in1017.3 mb 0.00 in0.0 mm 0.00 in/hr0.0 mm/hr 0.00 in0.0 mm
12:30 AM 38.5°F3.6°C 1.9°F-16.7°C 21% 0.1 mph NNW0.2 kmh NNW 1.8 mph2.9 kmh 30.04 in1017.3 mb 0.00 in0.0 mm 0.00 in/hr0.0 mm/hr 0.00 in0.0 mm
12:45 AM 37.4°F3.0°C 2.9°F-16.2°C 23% 0.1 mph NNW0.2 kmh NNW 2.9 mph4.7 kmh 30.03 in1016.9 mb 0.00 in0.0 mm 0.00 in/hr0.0 mm/hr 0.00 in0.0 mm
01:00 AM 36.9°F2.7°C 2.4°F-16.4°C 23% 0.9 mph NNW1.4 kmh NNW 5.1 mph8.2 kmh 30.04 in1017.3 mb 0.00 in0.0 mm 0.00 in/hr0.0 mm/hr 0.00 in0.0 mm
01:15 AM 36.7°F2.6°C 3.2°F-16.0°C 24% 3.4 mph NW5.5 kmh NW 8.5 mph13.7 kmh 30.03 in1016.9 mb 0.00 in0.0 mm 0.00 in/hr0.0 mm/hr 0.00 in0.0 mm
01:30 AM 36.5°F2.5°C 3.1°F-16.1°C 24% 0.7 mph WNW1.1 kmh WNW 4.9 mph7.9 kmh 30.04 in1017.3 mb 0.00 in0.0 mm 0.00 in/hr0.0 mm/hr 0.00 in0.0 mm
01:45 AM 36.3°F2.4°C 3.8°F-15.7°C 25% 1.8 mph SE2.9 kmh SE 4.9 mph7.9 kmh 30.05 in1017.6 mb 0.00 in0.0 mm 0.00 in/hr0.0 mm/hr 0.00 in0.0 mm
02:00 AM 36.7°F2.6°C 4.1°F-15.5°C 25% 4.5 mph N7.2 kmh N 13.2 mph21.2 kmh 30.05 in1017.6 mb 0.00 in0.0 mm 0.00 in/hr0.0 mm/hr 0.00 in0.0 mm
02:15 AM 36.7°F2.6°C 4.1°F-15.5°C 25% 8.5 mph NNW13.7 kmh NNW 14.3 mph23.0 kmh 30.04 in1017.3 mb 0.00 in0.0 mm 0.00 in/hr0.0 mm/hr 0.00 in0.0 mm
02:30 AM 36.0°F2.2°C 4.3°F-15.4°C 26% 1.0 mph NNW1.6 kmh NNW 6.5 mph10.5 kmh 30.06 in1017.9 mb 0.00 in0.0 mm 0.00 in/hr0.0 mm/hr 0.00 in0.0 mm
02:45 AM 35.8°F2.1°C 4.2°F-15.4°C 26% 3.8 mph NNW6.1 kmh NNW 12.5 mph20.1 kmh 30.05 in1017.6 mb 0.00 in0.0 mm 0.00 in/hr0.0 mm/hr 0.00 in0.0 mm
03:00 AM 35.4°F1.9°C 3.9°F-15.6°C 26% 7.8 mph NNW12.6 kmh NNW 12.1 mph19.5 kmh 30.04 in1017.3 mb 0.00 in0.0 mm 0.00 in/hr0.0 mm/hr 0.00 in0.0 mm
03:15 AM 35.1°F1.7°C 4.4°F-15.3°C 27% 2.1 mph N3.4 kmh N 9.2 mph14.8 kmh 30.05 in1017.6 mb 0.00 in0.0 mm 0.00 in/hr0.0 mm/hr 0.00 in0.0 mm
03:30 AM 34.9°F1.6°C 4.2°F-15.4°C 27% 2.7 mph SE4.3 kmh SE 6.7 mph10.8 kmh 30.06 in1017.9 mb 0.00 in0.0 mm 0.00 in/hr0.0 mm/hr 0.00 in0.0 mm
03:45 AM 34.3°F1.3°C 4.5°F-15.3°C 28% 9.1 mph N14.6 kmh N 15.4 mph24.8 kmh 30.05 in1017.6 mb 0.00 in0.0 mm 0.00 in/hr0.0 mm/hr 0.00 in0.0 mm
04:00 AM 33.6°F0.9°C 3.9°F-15.6°C 28% 3.2 mph NNE5.1 kmh NNE 6.7 mph10.8 kmh 30.06 in1017.9 mb 0.00 in0.0 mm 0.00 in/hr0.0 mm/hr 0.00 in0.0 mm
04:15 AM 33.1°F0.6°C 5.0°F-15.0°C 30% 1.5 mph NNE2.4 kmh NNE 5.8 mph9.3 kmh 30.06 in1017.9 mb 0.00 in0.0 mm 0.00 in/hr0.0 mm/hr 0.00 in0.0 mm
04:30 AM 31.8°F-0.1°C 7.2°F-13.8°C 35% 4.5 mph N7.2 kmh N 12.3 mph19.8 kmh 30.07 in1018.3 mb 0.00 in0.0 mm 0.00 in/hr0.0 mm/hr 0.00 in0.0 mm
04:45 AM 30.6°F-0.8°C 10.7°F-11.8°C 43% 5.9 mph N9.5 kmh N 10.5 mph16.9 kmh 30.08 in1018.6 mb 0.00 in0.0 mm 0.00 in/hr0.0 mm/hr 0.00 in0.0 mm
05:00 AM 29.8°F-1.2°C 11.5°F-11.4°C 46% 3.6 mph N5.8 kmh N 8.5 mph13.7 kmh 30.10 in1019.3 mb 0.00 in0.0 mm 0.00 in/hr0.0 mm/hr 0.00 in0.0 mm
05:15 AM 29.1°F-1.6°C 12.8°F-10.7°C 50% 3.3 mph NNE5.3 kmh NNE 7.8 mph12.6 kmh 30.12 in1020.0 mb 0.00 in0.0 mm 0.00 in/hr0.0 mm/hr 0.00 in0.0 mm
05:30 AM 28.6°F-1.9°C 14.4°F-9.8°C 55% 6.2 mph N10.0 kmh N 12.5 mph20.1 kmh 30.13 in1020.3 mb 0.00 in0.0 mm 0.00 in/hr0.0 mm/hr 0.00 in0.0 mm
05:45 AM 28.2°F-2.1°C 14.5°F-9.7°C 56% 5.6 mph N9.0 kmh N 10.7 mph17.2 kmh 30.15 in1021.0 mb 0.00 in0.0 mm 0.00 in/hr0.0 mm/hr 0.00 in0.0 mm
06:00 AM 27.7°F-2.4°C 14.4°F-9.8°C 57% 3.8 mph NNE6.1 kmh NNE 10.1 mph16.3 kmh 30.15 in1021.0 mb 0.00 in0.0 mm 0.00 in/hr0.0 mm/hr 0.00 in0.0 mm
06:15 AM 27.5°F-2.5°C 14.6°F-9.7°C 58% 3.3 mph NNE5.3 kmh NNE 5.4 mph8.7 kmh 30.16 in1021.3 mb 0.00 in0.0 mm 0.00 in/hr0.0 mm/hr 0.00 in0.0 mm
06:30 AM 27.3°F-2.6°C 14.9°F-9.5°C 59% 4.8 mph NE7.7 kmh NE 10.5 mph16.9 kmh 30.17 in1021.7 mb 0.00 in0.0 mm 0.00 in/hr0.0 mm/hr 0.00 in0.0 mm
06:45 AM 27.0°F-2.8°C 14.9°F-9.5°C 60% 3.9 mph NE6.3 kmh NE 9.6 mph15.4 kmh 30.18 in1022.0 mb 0.00 in0.0 mm 0.00 in/hr0.0 mm/hr 0.00 in0.0 mm
07:00 AM 26.6°F-3.0°C 14.9°F-9.5°C 61% 2.2 mph NE3.5 kmh NE 5.6 mph9.0 kmh 30.19 in1022.4 mb 0.00 in0.0 mm 0.00 in/hr0.0 mm/hr 0.00 in0.0 mm
07:15 AM 26.4°F-3.1°C 15.2°F-9.3°C 62% 3.9 mph NE6.3 kmh NE 10.5 mph16.9 kmh 30.20 in1022.7 mb 0.00 in0.0 mm 0.00 in/hr0.0 mm/hr 0.00 in0.0 mm
07:30 AM 26.4°F-3.1°C 15.9°F-8.9°C 64% 3.9 mph NNE6.3 kmh NNE 10.5 mph16.9 kmh 30.21 in1023.0 mb 0.00 in0.0 mm 0.00 in/hr0.0 mm/hr 0.00 in0.0 mm
07:45 AM 26.4°F-3.1°C 15.5°F-9.2°C 63% 4.6 mph NE7.4 kmh NE 11.4 mph18.3 kmh 30.21 in1023.0 mb 0.00 in0.0 mm 0.00 in/hr0.0 mm/hr 0.00 in0.0 mm
08:00 AM 26.2°F-3.2°C 15.7°F-9.1°C 64% 3.7 mph NE6.0 kmh NE 10.1 mph16.3 kmh 30.21 in1023.0 mb 0.00 in0.0 mm 0.00 in/hr0.0 mm/hr 0.00 in0.0 mm
08:15 AM 27.1°F-2.7°C 16.2°F-8.8°C 63% 4.3 mph NNE6.9 kmh NNE 7.8 mph12.6 kmh 30.21 in1023.0 mb 0.00 in0.0 mm 0.00 in/hr0.0 mm/hr 0.00 in0.0 mm
08:30 AM 28.0°F-2.2°C 16.7°F-8.5°C 62% 4.3 mph N6.9 kmh N 9.8 mph15.8 kmh 30.21 in1023.0 mb 0.00 in0.0 mm 0.00 in/hr0.0 mm/hr 0.00 in0.0 mm
08:45 AM 29.1°F-1.6°C 17.3°F-8.2°C 61% 4.7 mph N7.6 kmh N 9.4 mph15.1 kmh 30.21 in1023.0 mb 0.00 in0.0 mm 0.00 in/hr0.0 mm/hr 0.00 in0.0 mm
09:00 AM 30.4°F-0.9°C 17.4°F-8.1°C 58% 3.0 mph NNE4.8 kmh NNE 7.6 mph12.2 kmh 30.21 in1023.0 mb 0.00 in0.0 mm 0.00 in/hr0.0 mm/hr 0.00 in0.0 mm
09:15 AM 31.6°F-0.2°C 18.1°F-7.7°C 57% 3.6 mph N5.8 kmh N 8.5 mph13.7 kmh 30.21 in1023.0 mb 0.00 in0.0 mm 0.00 in/hr0.0 mm/hr 0.00 in0.0 mm
09:30 AM 32.9°F0.5°C 17.6°F-8.0°C 53% 3.6 mph N5.8 kmh N 6.0 mph9.7 kmh 30.21 in1023.0 mb 0.00 in0.0 mm 0.00 in/hr0.0 mm/hr 0.00 in0.0 mm
09:45 AM 34.0°F1.1°C 18.2°F-7.7°C 52% 4.4 mph N7.1 kmh N 6.9 mph11.1 kmh 30.21 in1023.0 mb 0.00 in0.0 mm 0.00 in/hr0.0 mm/hr 0.00 in0.0 mm
10:00 AM 34.9°F1.6°C 17.2°F-8.2°C 48% 4.4 mph N7.1 kmh N 8.9 mph14.3 kmh 30.21 in1023.0 mb 0.00 in0.0 mm 0.00 in/hr0.0 mm/hr 0.00 in0.0 mm
10:15 AM 36.9°F2.7°C 16.4°F-8.7°C 43% 4.0 mph N6.4 kmh N 10.5 mph16.9 kmh 30.21 in1023.0 mb 0.00 in0.0 mm 0.00 in/hr0.0 mm/hr 0.00 in0.0 mm
10:30 AM 37.9°F3.3°C 13.3°F-10.4°C 36% 5.1 mph NNE8.2 kmh NNE 9.8 mph15.8 kmh 30.20 in1022.7 mb 0.00 in0.0 mm 0.00 in/hr0.0 mm/hr 0.00 in0.0 mm
10:45 AM 39.0°F3.9°C 12.3°F-10.9°C 33% 6.1 mph N9.8 kmh N 15.2 mph24.5 kmh 30.20 in1022.7 mb 0.00 in0.0 mm 0.00 in/hr0.0 mm/hr 0.00 in0.0 mm
11:00 AM 40.3°F4.6°C 10.5°F-11.9°C 29% 4.6 mph NNE7.4 kmh NNE 9.4 mph15.1 kmh 30.20 in1022.7 mb 0.00 in0.0 mm 0.00 in/hr0.0 mm/hr 0.00 in0.0 mm
11:15 AM 41.5°F5.3°C 10.0°F-12.2°C 26% 3.3 mph N5.3 kmh N 8.7 mph14.0 kmh 30.19 in1022.4 mb 0.00 in0.0 mm 0.00 in/hr0.0 mm/hr 0.00 in0.0 mm
11:30 AM 42.6°F5.9°C 9.2°F-12.7°C 25% 2.8 mph N4.5 kmh N 8.5 mph13.7 kmh 30.20 in1022.7 mb 0.00 in0.0 mm 0.00 in/hr0.0 mm/hr 0.00 in0.0 mm
11:45 AM 43.0°F6.1°C 9.5°F-12.5°C 25% 3.7 mph NW6.0 kmh NW 10.1 mph16.3 kmh 30.20 in1022.7 mb 0.00 in0.0 mm 0.00 in/hr0.0 mm/hr 0.00 in0.0 mm
12:00 PM 43.2°F6.2°C 8.7°F-12.9°C 24% 4.5 mph NNE7.2 kmh NNE 9.4 mph15.1 kmh 30.20 in1022.7 mb 0.00 in0.0 mm 0.00 in/hr0.0 mm/hr 0.00 in0.0 mm
12:15 PM 44.4°F6.9°C 8.9°F-12.8°C 23% 4.9 mph NE7.9 kmh NE 12.3 mph19.8 kmh 30.19 in1022.4 mb 0.00 in0.0 mm 0.00 in/hr0.0 mm/hr 0.00 in0.0 mm
12:30 PM 45.1°F7.3°C 8.5°F-13.1°C 22% 4.9 mph NNE7.9 kmh NNE 11.4 mph18.3 kmh 30.18 in1022.0 mb 0.00 in0.0 mm 0.00 in/hr0.0 mm/hr 0.00 in0.0 mm
12:45 PM 45.5°F7.5°C 6.7°F-14.1°C 20% 6.3 mph NNE10.1 kmh NNE 11.2 mph18.0 kmh 30.18 in1022.0 mb 0.00 in0.0 mm 0.00 in/hr0.0 mm/hr 0.00 in0.0 mm
01:00 PM 46.8°F8.2°C 6.6°F-14.1°C 19% 5.4 mph NE8.7 kmh NE 14.3 mph23.0 kmh 30.17 in1021.7 mb 0.00 in0.0 mm 0.00 in/hr0.0 mm/hr 0.00 in0.0 mm
01:15 PM 48.7°F9.3°C 4.5°F-15.3°C 16% 2.0 mph NW3.2 kmh NW 10.5 mph16.9 kmh 30.17 in1021.7 mb 0.00 in0.0 mm 0.00 in/hr0.0 mm/hr 0.00 in0.0 mm
01:30 PM 49.8°F9.9°C 3.9°F-15.6°C 15% 3.7 mph N6.0 kmh N 11.2 mph18.0 kmh 30.16 in1021.3 mb 0.00 in0.0 mm 0.00 in/hr0.0 mm/hr 0.00 in0.0 mm
01:45 PM 50.2°F10.1°C 4.2°F-15.4°C 15% 4.8 mph N7.7 kmh N 11.4 mph18.3 kmh 30.16 in1021.3 mb 0.00 in0.0 mm 0.00 in/hr0.0 mm/hr 0.00 in0.0 mm
02:00 PM 50.5°F10.3°C 4.5°F-15.3°C 15% 2.7 mph NW4.3 kmh NW 8.7 mph14.0 kmh 30.16 in1021.3 mb 0.00 in0.0 mm 0.00 in/hr0.0 mm/hr 0.00 in0.0 mm
02:15 PM 50.2°F10.1°C 4.2°F-15.4°C 15% 3.4 mph NNE5.5 kmh NNE 9.4 mph15.1 kmh 30.16 in1021.3 mb 0.00 in0.0 mm 0.00 in/hr0.0 mm/hr 0.00 in0.0 mm
02:30 PM 50.4°F10.2°C 4.4°F-15.3°C 15% 1.7 mph E2.7 kmh E 6.9 mph11.1 kmh 30.15 in1021.0 mb 0.00 in0.0 mm 0.00 in/hr0.0 mm/hr 0.00 in0.0 mm
02:45 PM 52.9°F11.6°C 6.4°F-14.2°C 15% 2.6 mph SSE4.2 kmh SSE 7.6 mph12.2 kmh 30.14 in1020.7 mb 0.00 in0.0 mm 0.00 in/hr0.0 mm/hr 0.00 in0.0 mm
03:00 PM 53.1°F11.7°C 5.0°F-15.0°C 14% 3.5 mph ESE5.6 kmh ESE 8.9 mph14.3 kmh 30.14 in1020.7 mb 0.00 in0.0 mm 0.00 in/hr0.0 mm/hr 0.00 in0.0 mm
03:15 PM 52.5°F11.4°C 4.6°F-15.2°C 14% 2.3 mph E3.7 kmh E 8.1 mph13.0 kmh 30.14 in1020.7 mb 0.00 in0.0 mm 0.00 in/hr0.0 mm/hr 0.00 in0.0 mm
03:30 PM 52.9°F11.6°C 4.9°F-15.1°C 14% 6.4 mph ESE10.3 kmh ESE 12.3 mph19.8 kmh 30.14 in1020.7 mb 0.00 in0.0 mm 0.00 in/hr0.0 mm/hr 0.00 in0.0 mm
03:45 PM 54.0°F12.2°C 4.1°F-15.5°C 13% 3.2 mph ESE5.1 kmh ESE 9.2 mph14.8 kmh 30.14 in1020.7 mb 0.00 in0.0 mm 0.00 in/hr0.0 mm/hr 0.00 in0.0 mm
04:00 PM 54.3°F12.4°C 4.4°F-15.3°C 13% 3.1 mph NNW5.0 kmh NNW 7.4 mph11.9 kmh 30.14 in1020.7 mb 0.00 in0.0 mm 0.00 in/hr0.0 mm/hr 0.00 in0.0 mm
04:15 PM 54.7°F12.6°C 4.7°F-15.2°C 13% 1.0 mph N1.6 kmh N 4.7 mph7.6 kmh 30.14 in1020.7 mb 0.00 in0.0 mm 0.00 in/hr0.0 mm/hr 0.00 in0.0 mm
04:30 PM 56.1°F13.4°C 5.9°F-14.5°C 13% 1.0 mph NNE1.6 kmh NNE 4.7 mph7.6 kmh 30.13 in1020.3 mb 0.00 in0.0 mm 0.00 in/hr0.0 mm/hr 0.00 in0.0 mm
04:45 PM 57.0°F13.9°C 4.8°F-15.1°C 12% 1.5 mph NNW2.4 kmh NNW 4.9 mph7.9 kmh 30.13 in1020.3 mb 0.00 in0.0 mm 0.00 in/hr0.0 mm/hr 0.00 in0.0 mm
05:00 PM 56.8°F13.8°C 4.7°F-15.2°C 12% 1.4 mph S2.3 kmh S 4.3 mph6.9 kmh 30.13 in1020.3 mb 0.00 in0.0 mm 0.00 in/hr0.0 mm/hr 0.00 in0.0 mm
05:15 PM 56.5°F13.6°C 4.4°F-15.3°C 12% 0.7 mph E1.1 kmh E 6.3 mph10.1 kmh 30.13 in1020.3 mb 0.00 in0.0 mm 0.00 in/hr0.0 mm/hr 0.00 in0.0 mm
05:30 PM 57.9°F14.4°C 5.5°F-14.7°C 12% 0.2 mph ENE0.3 kmh ENE 2.5 mph4.0 kmh 30.13 in1020.3 mb 0.00 in0.0 mm 0.00 in/hr0.0 mm/hr 0.00 in0.0 mm
05:45 PM 57.4°F14.1°C 5.1°F-14.9°C 12% 0.6 mph ENE1.0 kmh ENE 5.1 mph8.2 kmh 30.13 in1020.3 mb 0.00 in0.0 mm 0.00 in/hr0.0 mm/hr 0.00 in0.0 mm
06:00 PM 57.4°F14.1°C 3.2°F-16.0°C 11% 2.7 mph NNW4.3 kmh NNW 9.4 mph15.1 kmh 30.13 in1020.3 mb 0.00 in0.0 mm 0.00 in/hr0.0 mm/hr 0.00 in0.0 mm
06:15 PM 56.1°F13.4°C 4.1°F-15.5°C 12% 2.9 mph NW4.7 kmh NW 7.4 mph11.9 kmh 30.13 in1020.3 mb 0.00 in0.0 mm 0.00 in/hr0.0 mm/hr 0.00 in0.0 mm
06:30 PM 56.8°F13.8°C 4.7°F-15.2°C 12% 0.1 mph NW0.2 kmh NW 1.6 mph2.6 kmh 30.13 in1020.3 mb 0.00 in0.0 mm 0.00 in/hr0.0 mm/hr 0.00 in0.0 mm
06:45 PM 55.2°F12.9°C 3.4°F-15.9°C 12% 2.1 mph NW3.4 kmh NW 5.1 mph8.2 kmh 30.14 in1020.7 mb 0.00 in0.0 mm 0.00 in/hr0.0 mm/hr 0.00 in0.0 mm
07:00 PM 53.2°F11.8°C 3.6°F-15.8°C 13% 0.2 mph NW0.3 kmh NW 2.5 mph4.0 kmh 30.14 in1020.7 mb 0.00 in0.0 mm 0.00 in/hr0.0 mm/hr 0.00 in0.0 mm
07:15 PM 51.4°F10.8°C 3.7°F-15.7°C 14% 0.2 mph NW0.3 kmh NW 2.9 mph4.7 kmh 30.15 in1021.0 mb 0.00 in0.0 mm 0.00 in/hr0.0 mm/hr 0.00 in0.0 mm
07:30 PM 50.5°F10.3°C 3.0°F-16.1°C 14% 3.9 mph S6.3 kmh S 8.5 mph13.7 kmh 30.17 in1021.7 mb 0.00 in0.0 mm 0.00 in/hr0.0 mm/hr 0.00 in0.0 mm
07:45 PM 49.3°F9.6°C 3.5°F-15.8°C 15% 3.6 mph SSE5.8 kmh SSE 6.7 mph10.8 kmh 30.18 in1022.0 mb 0.00 in0.0 mm 0.00 in/hr0.0 mm/hr 0.00 in0.0 mm
08:00 PM 48.4°F9.1°C 2.8°F-16.2°C 15% 3.3 mph SSE5.3 kmh SSE 7.2 mph11.6 kmh 30.21 in1023.0 mb 0.00 in0.0 mm 0.00 in/hr0.0 mm/hr 0.00 in0.0 mm
08:15 PM 47.3°F8.5°C 1.9°F-16.7°C 15% 4.1 mph SE6.6 kmh SE 9.4 mph15.1 kmh 30.21 in1023.0 mb 0.00 in0.0 mm 0.00 in/hr0.0 mm/hr 0.00 in0.0 mm
08:30 PM 46.6°F8.1°C 2.7°F-16.3°C 16% 4.3 mph SE6.9 kmh SE 7.4 mph11.9 kmh 30.20 in1022.7 mb 0.00 in0.0 mm 0.00 in/hr0.0 mm/hr 0.00 in0.0 mm
08:45 PM 45.5°F7.5°C 1.8°F-16.8°C 16% 2.8 mph SE4.5 kmh SE 5.1 mph8.2 kmh 30.19 in1022.4 mb 0.00 in0.0 mm 0.00 in/hr0.0 mm/hr 0.00 in0.0 mm
09:00 PM 45.1°F7.3°C 2.8°F-16.2°C 17% 2.4 mph SE3.9 kmh SE 4.7 mph7.6 kmh 30.19 in1022.4 mb 0.00 in0.0 mm 0.00 in/hr0.0 mm/hr 0.00 in0.0 mm
09:15 PM 44.4°F6.9°C 2.2°F-16.6°C 17% 1.4 mph SE2.3 kmh SE 3.6 mph5.8 kmh 30.19 in1022.4 mb 0.00 in0.0 mm 0.00 in/hr0.0 mm/hr 0.00 in0.0 mm
09:30 PM 43.9°F6.6°C 4.2°F-15.4°C 19% 1.1 mph SE1.8 kmh SE 3.4 mph5.5 kmh 30.19 in1022.4 mb 0.00 in0.0 mm 0.00 in/hr0.0 mm/hr 0.00 in0.0 mm
09:45 PM 43.5°F6.4°C 5.0°F-15.0°C 20% 1.8 mph SE2.9 kmh SE 4.3 mph6.9 kmh 30.20 in1022.7 mb 0.00 in0.0 mm 0.00 in/hr0.0 mm/hr 0.00 in0.0 mm
10:00 PM 42.1°F5.6°C 4.9°F-15.1°C 21% Calm Calm -- 30.19 in1022.4 mb 0.00 in0.0 mm 0.00 in/hr0.0 mm/hr 0.00 in0.0 mm
10:15 PM 41.9°F5.5°C 4.7°F-15.2°C 21% Calm Calm -- 30.19 in1022.4 mb 0.00 in0.0 mm 0.00 in/hr0.0 mm/hr 0.00 in0.0 mm
10:30 PM 41.2°F5.1°C 5.1°F-14.9°C 22% Calm Calm -- 30.20 in1022.7 mb 0.00 in0.0 mm 0.00 in/hr0.0 mm/hr 0.00 in0.0 mm
10:45 PM 40.3°F4.6°C 5.4°F-14.8°C 23% Calm Calm -- 30.19 in1022.4 mb 0.00 in0.0 mm 0.00 in/hr0.0 mm/hr 0.00 in0.0 mm
11:00 PM 39.2°F4.0°C 6.3°F-14.3°C 25% Calm Calm -- 30.19 in1022.4 mb 0.00 in0.0 mm 0.00 in/hr0.0 mm/hr 0.00 in0.0 mm
11:15 PM 39.0°F3.9°C 6.1°F-14.4°C 25% Calm Calm -- 30.19 in1022.4 mb 0.00 in0.0 mm 0.00 in/hr0.0 mm/hr 0.00 in0.0 mm
11:30 PM 38.5°F3.6°C 6.5°F-14.2°C 26% Calm Calm -- 30.18 in1022.0 mb 0.00 in0.0 mm 0.00 in/hr0.0 mm/hr 0.00 in0.0 mm
11:45 PM 38.8°F3.8°C 6.8°F-14.0°C 26% Calm Calm -- 30.18 in1022.0 mb 0.00 in0.0 mm 0.00 in/hr0.0 mm/hr 0.00 in0.0 mm